Terminal Aerodrome Forecast
Issued by NWS Missoula, MT

Home | Current Version | Previous Version | Text Only | Print | Product List | Glossary On
Versions: 1 2 3 4 5 6 7 8 9 10 11 12 13 14 15 16 17 18 19 20 21 22
107
FTUS45 KMSO 231220 AAB
TAFMSO
TAF AMD
KMSO 231220Z 2312/2412 34005KT P6SM BKN120
     FM231600 VRB03KT P6SM BKN100
     FM232100 30012G18KT P6SM SCT150
     FM240100 30008KT P6SM SKC=

USA.gov is the U.S. government's official web portal to all federal, state and local government web resources and services.